createdAt,value
2019-04-30T00:00:34.842Z,102331.80
2019-04-30T00:03:11.471Z,102334.92
2019-04-30T00:05:38.203Z,102329.45
2019-04-30T00:08:07.508Z,102318.83
2019-04-30T00:10:41.203Z,102323.92
2019-04-30T00:13:10.488Z,102322.47
2019-04-30T00:15:39.322Z,102325.54
2019-04-30T00:18:08.536Z,102321.33
2019-04-30T00:20:38.745Z,102312.41
2019-04-30T00:23:08.351Z,102310.95
2019-04-30T00:25:37.669Z,102318.89
2019-04-30T00:28:08.730Z,102309.84
2019-04-30T00:30:39.254Z,102305.10
2019-04-30T00:33:09.223Z,102305.70
2019-04-30T00:35:38.623Z,102308.37
2019-04-30T00:38:08.065Z,102301.02
2019-04-30T00:40:37.420Z,102301.81
2019-04-30T00:43:09.001Z,102302.76
2019-04-30T00:45:40.062Z,102300.03
2019-04-30T00:48:09.028Z,102297.70
2019-04-30T00:50:38.368Z,102299.38
2019-04-30T00:53:12.819Z,102297.49
2019-04-30T00:55:44.382Z,102302.16
2019-04-30T00:58:09.830Z,102303.67
2019-04-30T01:00:48.397Z,102297.30
2019-04-30T01:03:21.876Z,102295.37
2019-04-30T01:05:51.186Z,102302.78
2019-04-30T01:08:21.157Z,102292.46
2019-04-30T01:10:51.758Z,102289.20
2019-04-30T01:13:21.110Z,102287.97
2019-04-30T01:15:52.483Z,102296.75
2019-04-30T01:18:23.680Z,102293.50
2019-04-30T01:20:52.586Z,102291.92
2019-04-30T01:23:22.412Z,102294.52
2019-04-30T01:25:51.813Z,102288.58
2019-04-30T01:28:24.246Z,102288.05
2019-04-30T01:30:53.878Z,102291.17
2019-04-30T01:33:23.448Z,102295.11
2019-04-30T01:35:52.798Z,102293.56
2019-04-30T01:38:22.171Z,102294.52
2019-04-30T01:40:51.587Z,102290.38
2019-04-30T01:43:30.451Z,102291.42
2019-04-30T01:45:51.985Z,102281.99
2019-04-30T01:48:21.320Z,102287.13
2019-04-30T01:50:50.732Z,102284.25
2019-04-30T01:53:20.039Z,102279.14
2019-04-30T01:55:59.079Z,102285.08
2019-04-30T01:58:33.765Z,102289.34
2019-04-30T02:01:06.829Z,102275.95
2019-04-30T02:03:36.166Z,102280.25
2019-04-30T02:06:05.592Z,102278.81
2019-04-30T02:08:34.959Z,102276.76
2019-04-30T02:11:04.253Z,102269.92
2019-04-30T02:13:34.573Z,102266.61
2019-04-30T02:16:04.045Z,102275.56
2019-04-30T02:18:33.332Z,102267.89
2019-04-30T02:21:02.579Z,102273.67
2019-04-30T02:23:31.953Z,102262.53
2019-04-30T02:26:01.298Z,102265.63
2019-04-30T02:28:30.666Z,102265.56
2019-04-30T02:31:00.598Z,102259.22
2019-04-30T02:33:31.677Z,102267.55
2019-04-30T02:36:19.848Z,102264.59
2019-04-30T02:38:51.376Z,102266.66
2019-04-30T02:41:21.154Z,102257.20
2019-04-30T02:43:52.236Z,102261.88
2019-04-30T02:46:23.158Z,102254.05
2019-04-30T02:48:55.069Z,102253.64
2019-04-30T02:51:29.908Z,102252.73
2019-04-30T02:54:24.194Z,102254.83
2019-04-30T02:56:59.634Z,102255.45
2019-04-30T02:59:30.042Z,102253.47
2019-04-30T03:01:59.908Z,102251.52
2019-04-30T03:04:29.489Z,102250.56
2019-04-30T03:06:59.817Z,102247.91
2019-04-30T03:09:29.892Z,102251.13
2019-04-30T03:12:00.208Z,102252.59
2019-04-30T03:14:30.162Z,102251.38
2019-04-30T03:17:29.395Z,102255.31
2019-04-30T03:20:10.698Z,102247.44
2019-04-30T03:22:40.028Z,102244.26
2019-04-30T03:25:09.545Z,102242.91
2019-04-30T03:27:42.230Z,102243.42
2019-04-30T03:30:11.763Z,102241.75
2019-04-30T03:32:42.875Z,102242.80
2019-04-30T03:35:13.178Z,102237.91
2019-04-30T03:37:42.619Z,102241.75
2019-04-30T03:40:13.298Z,102236.69
2019-04-30T03:42:42.701Z,102238.19
2019-04-30T03:45:12.201Z,102237.36
2019-04-30T03:47:43.221Z,102239.41
2019-04-30T03:50:12.697Z,102236.13
2019-04-30T03:52:41.938Z,102235.61
2019-04-30T03:55:11.227Z,102232.75
2019-04-30T03:57:40.707Z,102231.11
2019-04-30T04:00:14.156Z,102229.78
2019-04-30T04:02:45.400Z,102222.94
2019-04-30T04:05:36.832Z,102232.38
2019-04-30T04:08:31.201Z,102219.41
2019-04-30T04:11:22.484Z,102223.28
2019-04-30T04:13:51.869Z,102218.38
2019-04-30T04:16:21.201Z,102223.19
2019-04-30T04:18:50.494Z,102219.73
2019-04-30T04:21:20.783Z,102218.25
2019-04-30T04:23:50.151Z,102214.27
2019-04-30T04:26:20.272Z,102221.19
2019-04-30T04:28:49.941Z,102211.11
2019-04-30T04:31:19.555Z,102221.20
2019-04-30T04:33:52.287Z,102212.83
2019-04-30T04:36:20.152Z,102218.40
2019-04-30T04:38:50.661Z,102217.33
2019-04-30T04:41:20.282Z,102220.03
2019-04-30T04:43:50.462Z,102219.20
2019-04-30T04:46:20.687Z,102216.16
2019-04-30T04:48:50.158Z,102207.55
2019-04-30T04:51:31.294Z,102206.68
2019-04-30T04:53:50.525Z,102208.42
2019-04-30T04:56:19.806Z,102207.31
2019-04-30T04:58:50.162Z,102205.29
2019-04-30T05:01:20.515Z,102201.72
2019-04-30T05:03:49.826Z,102207.94
2019-04-30T05:06:22.019Z,102213.00
2019-04-30T05:08:50.379Z,102197.67
2019-04-30T05:11:19.703Z,102202.55
2019-04-30T05:13:49.164Z,102200.44
2019-04-30T05:16:19.055Z,102196.16
2019-04-30T05:18:48.889Z,102198.59
2019-04-30T05:21:18.773Z,102192.30
2019-04-30T05:23:49.297Z,102196.88
2019-04-30T05:26:19.209Z,102199.68
2019-04-30T05:28:52.470Z,102194.41
2019-04-30T05:31:21.100Z,102189.26
2019-04-30T05:33:50.553Z,102184.42
2019-04-30T05:36:19.999Z,102186.59
2019-04-30T05:38:49.259Z,102185.87
2019-04-30T05:41:19.281Z,102185.87
2019-04-30T05:43:49.002Z,102174.53
2019-04-30T05:46:19.594Z,102183.84
2019-04-30T05:48:49.517Z,102180.40
2019-04-30T05:51:21.176Z,102165.55
2019-04-30T05:53:50.062Z,102172.75
2019-04-30T05:56:19.480Z,102164.21
2019-04-30T05:58:49.474Z,102165.58
2019-04-30T06:01:19.643Z,102159.08
2019-04-30T06:03:49.144Z,102160.34
2019-04-30T06:06:19.281Z,102156.17
2019-04-30T06:09:06.234Z,102160.66
2019-04-30T06:11:49.186Z,102157.94
2019-04-30T06:14:46.639Z,102152.48
2019-04-30T06:17:11.310Z,102154.59
2019-04-30T06:19:40.725Z,102156.92
2019-04-30T06:22:11.041Z,102148.06
2019-04-30T06:24:40.581Z,102144.97
2019-04-30T06:27:10.866Z,102153.60
2019-04-30T06:29:40.599Z,102143.19
2019-04-30T06:32:09.999Z,102140.06
2019-04-30T06:34:41.973Z,102135.59
2019-04-30T06:37:11.121Z,102129.30
2019-04-30T06:39:40.570Z,102125.72
2019-04-30T06:42:12.827Z,102135.01
2019-04-30T06:44:41.978Z,102126.54
2019-04-30T06:47:11.668Z,102130.00
2019-04-30T06:49:40.958Z,102134.28
2019-04-30T06:52:20.267Z,102125.05
2019-04-30T06:54:41.741Z,102124.30
2019-04-30T06:57:12.155Z,102117.39
2019-04-30T06:59:41.517Z,102117.77
2019-04-30T07:02:10.804Z,102122.77
2019-04-30T07:04:40.288Z,102114.34
2019-04-30T07:07:09.704Z,102116.16
2019-04-30T07:10:00.569Z,102115.40
2019-04-30T07:13:05.819Z,102122.09
2019-04-30T07:15:35.170Z,102128.88
2019-04-30T07:18:04.450Z,102131.64
2019-04-30T07:20:34.158Z,102130.50
2019-04-30T07:23:03.555Z,102130.05
2019-04-30T07:25:32.809Z,102125.91
2019-04-30T07:28:02.161Z,102128.72
2019-04-30T07:30:31.787Z,102125.22
2019-04-30T07:33:01.172Z,102126.91
2019-04-30T07:35:30.548Z,102128.94
2019-04-30T07:38:04.693Z,102129.07
2019-04-30T07:40:30.819Z,102126.23
2019-04-30T07:43:00.129Z,102126.09
2019-04-30T07:45:32.043Z,102137.60
2019-04-30T07:48:00.544Z,102134.61
2019-04-30T07:50:31.270Z,102133.92
2019-04-30T07:53:05.850Z,102121.72
2019-04-30T07:55:32.320Z,102132.03
2019-04-30T07:58:01.569Z,102128.92
2019-04-30T08:00:31.341Z,102187.23
2019-04-30T08:03:11.618Z,102125.08
2019-04-30T08:05:43.430Z,102124.84
2019-04-30T08:08:20.775Z,102128.29
2019-04-30T08:10:43.925Z,102126.60
2019-04-30T08:13:15.072Z,102123.19
2019-04-30T08:15:44.350Z,102128.28
2019-04-30T08:18:13.858Z,102119.31
2019-04-30T08:20:43.096Z,102119.31
2019-04-30T08:23:20.254Z,102117.38
2019-04-30T08:25:43.554Z,102124.13
2019-04-30T08:28:12.872Z,102113.08
2019-04-30T08:30:42.171Z,102106.66
2019-04-30T08:33:11.465Z,102101.50
2019-04-30T08:35:40.727Z,102102.87
2019-04-30T08:38:10.854Z,102109.59
2019-04-30T08:40:52.841Z,102102.19
2019-04-30T08:43:11.544Z,102109.72
2019-04-30T08:45:41.114Z,102102.81
2019-04-30T08:48:10.395Z,102110.77
2019-04-30T08:50:40.655Z,102104.50
2019-04-30T08:53:11.154Z,102106.23
2019-04-30T08:55:40.779Z,102108.50
2019-04-30T08:58:14.865Z,102111.10
2019-04-30T09:00:41.132Z,102102.17
2019-04-30T09:03:10.542Z,102096.52
2019-04-30T09:05:58.956Z,102099.35
2019-04-30T09:08:29.433Z,102096.27
2019-04-30T09:10:59.537Z,102091.19
2019-04-30T09:13:28.990Z,102086.26
2019-04-30T09:15:59.366Z,102086.61
2019-04-30T09:18:29.274Z,102085.79
2019-04-30T09:21:06.070Z,102088.66
2019-04-30T09:23:43.019Z,102082.86
2019-04-30T09:26:00.845Z,102083.45
2019-04-30T09:28:30.205Z,102079.47
2019-04-30T09:30:59.445Z,102078.88
2019-04-30T09:33:29.413Z,102072.39
2019-04-30T09:35:59.546Z,102080.96
2019-04-30T09:38:29.138Z,102080.56
2019-04-30T09:40:59.395Z,102076.66
2019-04-30T09:43:30.014Z,102073.34
2019-04-30T09:45:59.861Z,102067.02
2019-04-30T09:48:30.629Z,102065.25
2019-04-30T09:51:01.064Z,102064.84
2019-04-30T09:53:31.521Z,102056.63
2019-04-30T09:56:00.974Z,102051.11
2019-04-30T09:58:30.400Z,102040.13
2019-04-30T10:00:59.890Z,102032.52
2019-04-30T10:03:30.721Z,102044.82
2019-04-30T10:06:00.224Z,102041.30
2019-04-30T10:08:30.731Z,102038.03
2019-04-30T10:11:09.855Z,102032.23
2019-04-30T10:13:39.127Z,102030.86
2019-04-30T10:16:29.529Z,102030.34
2019-04-30T10:18:59.236Z,102024.95
2019-04-30T10:21:29.804Z,102029.44
2019-04-30T10:24:12.494Z,102033.02
2019-04-30T10:26:30.850Z,102033.56
2019-04-30T10:29:00.577Z,102033.48
2019-04-30T10:31:29.862Z,102030.02
2019-04-30T10:33:59.248Z,102026.16
2019-04-30T10:36:29.539Z,102022.66
2019-04-30T10:38:59.491Z,102022.70
2019-04-30T10:41:29.120Z,102018.88
2019-04-30T10:43:59.156Z,102018.77
2019-04-30T10:46:28.538Z,102017.75
2019-04-30T10:48:57.850Z,102011.48
2019-04-30T10:51:28.835Z,102003.01
2019-04-30T10:53:59.154Z,102003.01
2019-04-30T10:56:29.152Z,102006.67
2019-04-30T10:58:59.221Z,102007.00
2019-04-30T11:01:29.190Z,102005.23
2019-04-30T11:03:58.567Z,102003.42
2019-04-30T11:06:27.966Z,102002.09
2019-04-30T11:08:57.318Z,102003.69
2019-04-30T11:11:28.285Z,102002.30
2019-04-30T11:13:57.734Z,101998.07
2019-04-30T11:16:27.141Z,101995.43
2019-04-30T11:18:56.660Z,101985.75
2019-04-30T11:21:26.259Z,101987.08
2019-04-30T11:23:55.911Z,101985.18
2019-04-30T11:26:25.864Z,101988.75
2019-04-30T11:28:55.986Z,101982.70
2019-04-30T11:31:49.248Z,101975.75
2019-04-30T11:34:18.658Z,101973.62
2019-04-30T11:36:47.970Z,101965.84
2019-04-30T11:39:19.823Z,101964.42
2019-04-30T11:41:49.202Z,101954.61
2019-04-30T11:44:30.243Z,101959.63
2019-04-30T11:47:19.707Z,101954.52
2019-04-30T11:49:49.003Z,101952.07
2019-04-30T11:52:18.625Z,101951.30
2019-04-30T11:54:52.013Z,101946.91
2019-04-30T11:57:19.443Z,101943.69
2019-04-30T11:59:49.005Z,101931.16
2019-04-30T12:02:23.125Z,101937.14
2019-04-30T12:04:52.564Z,101935.16
2019-04-30T12:07:34.514Z,101926.47
2019-04-30T12:10:19.362Z,101922.23
2019-04-30T12:12:48.753Z,101921.42
2019-04-30T12:15:19.233Z,101920.76
2019-04-30T12:17:48.506Z,101920.80
2019-04-30T12:20:19.685Z,101911.90
2019-04-30T12:22:49.416Z,101915.52
2019-04-30T12:25:18.838Z,101908.33
2019-04-30T12:27:48.954Z,101910.05
2019-04-30T12:30:20.709Z,101915.06
2019-04-30T12:32:49.790Z,101904.08
2019-04-30T12:35:19.283Z,101901.31
2019-04-30T12:37:50.819Z,101903.16
2019-04-30T12:40:28.694Z,101906.44
2019-04-30T12:42:50.789Z,101898.17
2019-04-30T12:45:20.085Z,101893.38
2019-04-30T12:47:54.031Z,101891.68
2019-04-30T12:50:29.223Z,101885.73
2019-04-30T12:53:02.037Z,101887.37
2019-04-30T12:55:50.282Z,101886.95
2019-04-30T12:58:20.779Z,101889.02
2019-04-30T13:00:50.200Z,101883.56
2019-04-30T13:03:19.537Z,101881.47
2019-04-30T13:05:50.647Z,101876.84
2019-04-30T13:08:21.311Z,101875.80
2019-04-30T13:10:51.995Z,101872.01
2019-04-30T13:13:22.064Z,101870.70
2019-04-30T13:15:51.771Z,101870.48
2019-04-30T13:18:21.082Z,101873.70
2019-04-30T13:20:50.510Z,101875.88
2019-04-30T13:23:19.884Z,101874.72
2019-04-30T13:25:51.639Z,101860.48
2019-04-30T13:28:22.325Z,101853.11
2019-04-30T13:30:51.631Z,101851.56
2019-04-30T13:33:32.878Z,101847.80
2019-04-30T13:36:02.180Z,101850.14
2019-04-30T13:38:52.331Z,101840.34
2019-04-30T13:41:51.075Z,101844.06
2019-04-30T13:44:33.074Z,101836.67
2019-04-30T13:47:02.447Z,101833.44
2019-04-30T13:49:31.813Z,101834.05
2019-04-30T13:52:01.246Z,101832.58
2019-04-30T13:54:30.552Z,101831.45
2019-04-30T13:56:59.885Z,101816.86
2019-04-30T13:59:29.369Z,101824.39
2019-04-30T14:01:58.896Z,101820.00
2019-04-30T14:04:46.943Z,101818.84
2019-04-30T14:07:50.245Z,101816.97
2019-04-30T14:10:19.682Z,101808.09
2019-04-30T14:12:53.822Z,101809.84
2019-04-30T14:15:23.437Z,101810.23
2019-04-30T14:17:52.745Z,101810.00
2019-04-30T14:20:22.058Z,101802.51
2019-04-30T14:22:51.537Z,101800.59
2019-04-30T14:25:20.852Z,101799.19
2019-04-30T14:27:54.494Z,101793.66
2019-04-30T14:30:21.910Z,101790.08
2019-04-30T14:32:51.330Z,101790.38
2019-04-30T14:35:20.577Z,101788.97
2019-04-30T14:37:49.896Z,101792.80
2019-04-30T14:40:20.472Z,101796.37
2019-04-30T14:43:02.983Z,101788.65
2019-04-30T14:45:40.970Z,101790.36
2019-04-30T14:48:17.885Z,101777.90
2019-04-30T14:50:48.983Z,101777.10
2019-04-30T14:53:30.590Z,101765.47
2019-04-30T14:56:21.900Z,101762.16
2019-04-30T14:59:19.347Z,101755.81
2019-04-30T15:01:52.847Z,101755.80
2019-04-30T15:04:22.244Z,101759.34
2019-04-30T15:06:51.560Z,101753.52
2019-04-30T15:09:21.092Z,101751.56
2019-04-30T15:11:50.588Z,101759.25
2019-04-30T15:14:19.882Z,101755.39
2019-04-30T15:16:49.185Z,101749.63
2019-04-30T15:19:18.701Z,101743.55
2019-04-30T15:21:48.010Z,101743.85
2019-04-30T15:24:30.517Z,101741.88
2019-04-30T15:26:59.829Z,101740.25
2019-04-30T15:29:29.209Z,101741.65
2019-04-30T15:31:59.273Z,101733.33
2019-04-30T15:34:29.426Z,101729.98
2019-04-30T15:36:59.250Z,101721.45
2019-04-30T15:39:34.835Z,101721.72
2019-04-30T15:42:04.730Z,101721.72
2019-04-30T15:44:40.093Z,101711.81
2019-04-30T15:47:06.192Z,101717.03
2019-04-30T15:49:35.646Z,101714.86
2019-04-30T15:52:05.333Z,101709.86
2019-04-30T15:54:34.794Z,101707.92
2019-04-30T15:57:04.406Z,101701.31
2019-04-30T15:59:39.483Z,101700.20
2019-04-30T16:02:34.100Z,101697.44
2019-04-30T16:05:12.494Z,101692.48
2019-04-30T16:07:49.486Z,101693.05
2019-04-30T16:10:41.478Z,101690.56
2019-04-30T16:13:19.503Z,101686.42
2019-04-30T16:15:49.227Z,101689.72
2019-04-30T16:18:19.575Z,101685.31
2019-04-30T16:20:49.844Z,101686.14
2019-04-30T16:23:19.265Z,101685.03
2019-04-30T16:25:48.574Z,101684.73
2019-04-30T16:28:19.588Z,101675.36
2019-04-30T16:30:49.039Z,101671.78
2019-04-30T16:33:19.457Z,101675.64
2019-04-30T16:35:51.030Z,101673.97
2019-04-30T16:38:20.936Z,101672.61
2019-04-30T16:40:50.350Z,101671.20
2019-04-30T16:43:20.369Z,101664.02
2019-04-30T16:45:49.737Z,101660.16
2019-04-30T16:48:19.477Z,101666.74
2019-04-30T16:50:51.226Z,101660.95
2019-04-30T16:53:20.246Z,101656.54
2019-04-30T16:55:50.607Z,101649.91
2019-04-30T16:58:20.029Z,101650.48
2019-04-30T17:00:49.441Z,101650.78
2019-04-30T17:03:31.342Z,101643.03
2019-04-30T17:06:06.584Z,101637.50
2019-04-30T17:08:43.726Z,101636.67
2019-04-30T17:11:30.709Z,101635.86
2019-04-30T17:14:02.981Z,101633.93
2019-04-30T17:16:32.419Z,101627.59
2019-04-30T17:19:01.770Z,101629.52
2019-04-30T17:21:31.204Z,101628.12
2019-04-30T17:24:00.665Z,101621.50
2019-04-30T17:26:29.984Z,101615.69
2019-04-30T17:28:59.855Z,101613.20
2019-04-30T17:31:29.471Z,101613.22
2019-04-30T17:33:58.781Z,101610.19
2019-04-30T17:36:29.773Z,101611.02
2019-04-30T17:38:59.431Z,101613.48
2019-04-30T17:41:28.748Z,101608.26
2019-04-30T17:43:58.997Z,101610.16
2019-04-30T17:46:28.597Z,101603.53
2019-04-30T17:48:59.292Z,101614.30
2019-04-30T17:51:28.655Z,101612.36
2019-04-30T17:54:16.367Z,101605.17
2019-04-30T17:56:46.605Z,101601.59
2019-04-30T17:59:16.085Z,101602.43
2019-04-30T18:01:54.160Z,101607.41
2019-04-30T18:04:23.733Z,101600.23
2019-04-30T18:06:53.079Z,101595.55
2019-04-30T18:09:22.478Z,101590.04
2019-04-30T18:11:51.731Z,101594.70
2019-04-30T18:14:21.120Z,101589.20
2019-04-30T18:16:50.759Z,101594.16
2019-04-30T18:19:42.036Z,101595.81
2019-04-30T18:22:36.628Z,101596.92
2019-04-30T18:25:23.813Z,101599.67
2019-04-30T18:27:59.488Z,101598.83
2019-04-30T18:30:33.290Z,101599.11
2019-04-30T18:33:03.295Z,101599.36
2019-04-30T18:35:32.596Z,101607.91
2019-04-30T18:38:01.875Z,101608.72
2019-04-30T18:40:31.403Z,101605.36
2019-04-30T18:43:00.667Z,101610.84
2019-04-30T18:45:30.137Z,101607.53
2019-04-30T18:48:01.518Z,101608.11
2019-04-30T18:50:30.469Z,101600.64
2019-04-30T18:53:02.329Z,101597.30
2019-04-30T18:55:31.633Z,101601.69
2019-04-30T18:58:01.455Z,101606.08
2019-04-30T19:00:40.383Z,101609.95
2019-04-30T19:03:09.718Z,101606.92
2019-04-30T19:05:40.359Z,101610.71
2019-04-30T19:08:19.495Z,101616.99
2019-04-30T19:11:02.882Z,101619.13
2019-04-30T19:13:51.190Z,101620.44
2019-04-30T19:16:45.663Z,101615.64
2019-04-30T19:19:20.226Z,101610.08
2019-04-30T19:21:49.612Z,101606.41
2019-04-30T19:24:19.777Z,101607.69
2019-04-30T19:26:49.320Z,101605.15
2019-04-30T19:29:18.550Z,101610.03
2019-04-30T19:31:49.463Z,101609.17
2019-04-30T19:34:19.073Z,101602.81
2019-04-30T19:36:49.251Z,101601.98
2019-04-30T19:39:20.038Z,101601.95
2019-04-30T19:41:49.433Z,101607.96
2019-04-30T19:44:20.633Z,101598.84
2019-04-30T19:46:49.942Z,101603.72
2019-04-30T19:49:19.332Z,101600.38
2019-04-30T19:51:49.506Z,101597.59
2019-04-30T19:54:19.884Z,101601.05
2019-04-30T19:56:50.178Z,101590.51
2019-04-30T19:59:19.514Z,101603.93
2019-04-30T20:01:48.925Z,101602.28
2019-04-30T20:04:18.637Z,101604.72
2019-04-30T20:06:48.717Z,101599.17
2019-04-30T20:09:19.391Z,101593.08
2019-04-30T20:11:49.320Z,101594.41
2019-04-30T20:14:18.809Z,101593.30
2019-04-30T20:16:48.635Z,101589.69
2019-04-30T20:19:18.153Z,101589.69
2019-04-30T20:21:53.065Z,101589.87
2019-04-30T20:24:19.077Z,101587.36
2019-04-30T20:26:51.595Z,101575.50
2019-04-30T20:29:20.938Z,101579.61
2019-04-30T20:31:50.247Z,101573.58
2019-04-30T20:34:19.604Z,101574.67
2019-04-30T20:36:49.072Z,101576.05
2019-04-30T20:39:31.863Z,101574.11
2019-04-30T20:42:01.155Z,101570.22
2019-04-30T20:44:30.799Z,101565.00
2019-04-30T20:47:00.178Z,101559.19
2019-04-30T20:49:29.550Z,101560.84
2019-04-30T20:51:59.068Z,101556.66
2019-04-30T20:54:29.109Z,101560.27
2019-04-30T20:56:59.095Z,101548.70
2019-04-30T20:59:29.035Z,101547.55
2019-04-30T21:01:58.491Z,101542.27
2019-04-30T21:04:27.903Z,101536.41
2019-04-30T21:06:59.358Z,101537.73
2019-04-30T21:09:28.401Z,101539.56
2019-04-30T21:11:58.766Z,101537.08
2019-04-30T21:14:28.139Z,101537.84
2019-04-30T21:16:57.432Z,101530.83
2019-04-30T21:19:26.762Z,101528.51
2019-04-30T21:21:56.139Z,101533.84
2019-04-30T21:24:25.456Z,101532.07
2019-04-30T21:26:54.872Z,101532.62
2019-04-30T21:29:24.257Z,101528.00
2019-04-30T21:32:12.624Z,101532.47
2019-04-30T21:35:06.818Z,101526.20
2019-04-30T21:37:36.314Z,101529.17
2019-04-30T21:40:06.083Z,101519.50
2019-04-30T21:42:35.385Z,101521.36
2019-04-30T21:45:05.195Z,101519.39
2019-04-30T21:47:34.594Z,101520.48
2019-04-30T21:50:04.394Z,101517.41
2019-04-30T21:52:34.008Z,101514.59
2019-04-30T21:55:03.680Z,101518.54
2019-04-30T21:57:33.067Z,101511.82
2019-04-30T22:00:02.358Z,101511.44
2019-04-30T22:02:31.711Z,101514.44
2019-04-30T22:05:01.061Z,101509.73
2019-04-30T22:07:30.604Z,101517.66
2019-04-30T22:09:59.873Z,101516.48
2019-04-30T22:12:31.135Z,101516.70
2019-04-30T22:15:00.336Z,101509.24
2019-04-30T22:17:29.604Z,101511.98
2019-04-30T22:19:59.663Z,101505.34
2019-04-30T22:22:29.239Z,101506.31
2019-04-30T22:24:59.682Z,101508.15
2019-04-30T22:27:29.048Z,101505.33
2019-04-30T22:29:58.510Z,101502.87
2019-04-30T22:32:27.797Z,101507.38
2019-04-30T22:35:08.267Z,101496.41
2019-04-30T22:37:37.606Z,101504.86
2019-04-30T22:40:09.326Z,101498.19
2019-04-30T22:42:39.977Z,101493.42
2019-04-30T22:45:35.942Z,101490.06
2019-04-30T22:48:05.259Z,101485.92
2019-04-30T22:50:34.573Z,101478.42
2019-04-30T22:53:03.988Z,101478.39
2019-04-30T22:55:33.560Z,101482.98
2019-04-30T22:58:02.850Z,101479.70
2019-04-30T23:00:39.408Z,101481.33
2019-04-30T23:03:11.646Z,101484.81
2019-04-30T23:05:40.971Z,101478.70
2019-04-30T23:08:10.334Z,101475.91
2019-04-30T23:10:39.646Z,101470.89
2019-04-30T23:13:09.007Z,101468.09
2019-04-30T23:15:38.321Z,101468.83
2019-04-30T23:18:07.825Z,101466.29
2019-04-30T23:20:37.361Z,101458.50
2019-04-30T23:23:06.621Z,101461.78
2019-04-30T23:25:35.948Z,101458.41
2019-04-30T23:28:05.482Z,101456.12
2019-04-30T23:30:34.808Z,101453.55
2019-04-30T23:33:04.122Z,101451.03
2019-04-30T23:35:33.424Z,101453.48
2019-04-30T23:38:02.826Z,101446.55
2019-04-30T23:40:48.110Z,101450.02
2019-04-30T23:43:17.663Z,101446.80
2019-04-30T23:45:47.033Z,101438.31
2019-04-30T23:48:16.512Z,101432.55
2019-04-30T23:50:45.865Z,101432.14
2019-04-30T23:53:15.138Z,101433.31
2019-04-30T23:55:44.446Z,101429.87
2019-04-30T23:58:13.864Z,101429.23
